createdAt,value
2022-12-08T00:00:07.849Z,62.55
2022-12-08T00:02:38.968Z,63.12
2022-12-08T00:05:24.939Z,62.58
2022-12-08T00:08:10.456Z,63.13
2022-12-08T00:10:52.543Z,63.29
2022-12-08T00:13:19.196Z,63.30
2022-12-08T00:15:45.798Z,63.18
2022-12-08T00:18:12.448Z,63.34
2022-12-08T00:20:39.074Z,62.69
2022-12-08T00:23:05.948Z,62.54
2022-12-08T00:25:36.316Z,62.86
2022-12-08T00:28:03.014Z,63.27
2022-12-08T00:30:29.685Z,62.60
2022-12-08T00:32:56.321Z,61.56
2022-12-08T00:35:22.998Z,61.14
2022-12-08T00:37:49.692Z,62.25
2022-12-08T00:40:16.259Z,62.79
2022-12-08T00:42:42.868Z,63.12
2022-12-08T00:45:09.926Z,62.96
2022-12-08T00:47:36.631Z,62.56
2022-12-08T00:50:04.358Z,61.82
2022-12-08T00:52:31.146Z,62.07
2022-12-08T00:54:57.717Z,62.90
2022-12-08T00:57:24.430Z,61.40
2022-12-08T00:59:51.008Z,62.07
2022-12-08T01:02:17.679Z,61.33
2022-12-08T01:04:44.497Z,61.16
2022-12-08T01:07:11.140Z,61.08
2022-12-08T01:09:37.949Z,61.99
2022-12-08T01:12:05.709Z,63.46
2022-12-08T01:14:32.708Z,62.82
2022-12-08T01:16:59.448Z,62.40
2022-12-08T01:19:26.217Z,60.73
2022-12-08T01:21:52.861Z,61.24
2022-12-08T01:24:21.154Z,60.80
2022-12-08T01:26:49.572Z,61.27
2022-12-08T01:29:16.563Z,60.87
2022-12-08T01:31:43.403Z,61.04
2022-12-08T01:34:14.924Z,60.76
2022-12-08T01:36:42.466Z,61.52
2022-12-08T01:39:15.208Z,62.08
2022-12-08T01:41:43.627Z,62.38
2022-12-08T01:44:10.820Z,60.64
2022-12-08T01:46:39.626Z,61.40
2022-12-08T01:49:27.108Z,62.37
2022-12-08T01:52:10.821Z,61.58
2022-12-08T01:54:44.466Z,62.13
2022-12-08T01:57:23.582Z,61.15
2022-12-08T01:59:56.972Z,61.59
2022-12-08T02:02:26.340Z,61.65
2022-12-08T02:04:53.071Z,60.87
2022-12-08T02:07:20.529Z,61.11
2022-12-08T02:09:47.705Z,61.37
2022-12-08T02:12:14.853Z,62.17
2022-12-08T02:14:41.622Z,62.29
2022-12-08T02:17:36.161Z,62.55
2022-12-08T02:20:24.557Z,61.16
2022-12-08T02:23:07.202Z,60.88
2022-12-08T02:25:51.984Z,63.42
2022-12-08T02:28:45.086Z,64.49
2022-12-08T02:31:44.253Z,64.54
2022-12-08T02:34:27.585Z,63.33
2022-12-08T02:37:02.984Z,62.82
2022-12-08T02:39:45.974Z,62.95
2022-12-08T02:42:21.269Z,62.35
2022-12-08T02:45:06.694Z,60.92
2022-12-08T02:47:34.329Z,60.21
2022-12-08T02:50:01.004Z,61.32
2022-12-08T02:52:27.751Z,60.59
2022-12-08T02:54:58.771Z,61.71
2022-12-08T02:57:44.546Z,61.11
2022-12-08T03:00:16.470Z,61.65
2022-12-08T03:03:09.440Z,62.33
2022-12-08T03:05:42.303Z,62.10
2022-12-08T03:08:19.181Z,61.58
2022-12-08T03:11:11.077Z,62.29
2022-12-08T03:13:46.301Z,62.83
2022-12-08T03:16:17.605Z,62.37
2022-12-08T03:18:49.129Z,61.98
2022-12-08T03:21:18.905Z,61.43
2022-12-08T03:23:48.260Z,62.57
2022-12-08T03:26:23.597Z,62.42
2022-12-08T03:28:50.605Z,62.33
2022-12-08T03:31:19.439Z,62.14
2022-12-08T03:33:51.815Z,62.12
2022-12-08T03:36:19.454Z,62.56
2022-12-08T03:38:46.840Z,62.32
2022-12-08T03:41:19.228Z,62.08
2022-12-08T03:43:54.891Z,61.66
2022-12-08T03:48:49.784Z,61.86
2022-12-08T03:51:17.314Z,61.68
2022-12-08T03:53:44.537Z,61.96
2022-12-08T03:56:28.421Z,61.30
2022-12-08T03:58:58.105Z,61.08
2022-12-08T04:01:25.615Z,60.79
2022-12-08T04:03:52.268Z,62.00
2022-12-08T04:06:20.094Z,61.96
2022-12-08T04:08:47.788Z,61.95
2022-12-08T04:11:14.561Z,61.80
2022-12-08T04:13:42.158Z,62.54
2022-12-08T04:16:14.680Z,61.05
2022-12-08T04:18:41.467Z,61.93
2022-12-08T04:21:08.109Z,62.22
2022-12-08T04:23:34.751Z,62.48
2022-12-08T04:26:01.356Z,61.93
2022-12-08T04:28:29.428Z,62.26
2022-12-08T04:30:56.117Z,62.16
2022-12-08T04:33:22.925Z,62.08
2022-12-08T04:35:50.094Z,62.89
2022-12-08T04:38:17.376Z,63.24
2022-12-08T04:40:45.825Z,62.57
2022-12-08T04:43:12.596Z,62.41
2022-12-08T04:45:40.461Z,62.20
2022-12-08T04:48:07.410Z,63.19
2022-12-08T04:50:34.016Z,63.63
2022-12-08T04:53:00.759Z,63.40
2022-12-08T04:55:27.349Z,63.37
2022-12-08T04:57:54.063Z,63.03
2022-12-08T05:00:20.730Z,62.53
2022-12-08T05:02:47.492Z,62.02
2022-12-08T05:05:14.184Z,61.07
2022-12-08T05:07:40.941Z,61.63
2022-12-08T05:10:08.535Z,61.45
2022-12-08T05:12:35.222Z,60.47
2022-12-08T05:15:01.941Z,61.03
2022-12-08T05:17:28.721Z,61.58
2022-12-08T05:19:55.472Z,61.82
2022-12-08T05:22:22.181Z,62.03
2022-12-08T05:24:48.822Z,62.68
2022-12-08T05:27:16.054Z,62.89
2022-12-08T05:29:42.667Z,63.10
2022-12-08T05:32:09.377Z,62.19
2022-12-08T05:34:37.499Z,62.08
2022-12-08T05:37:04.118Z,62.35
2022-12-08T05:39:31.269Z,62.47
2022-12-08T05:41:58.036Z,63.57
2022-12-08T05:44:24.609Z,63.41
2022-12-08T05:46:51.897Z,62.75
2022-12-08T05:49:18.563Z,62.34
2022-12-08T05:51:45.267Z,63.93
2022-12-08T05:54:11.898Z,64.56
2022-12-08T05:56:38.634Z,64.37
2022-12-08T05:59:07.946Z,63.53
2022-12-08T06:01:34.970Z,62.69
2022-12-08T06:04:03.859Z,63.54
2022-12-08T06:06:31.628Z,63.60
2022-12-08T06:08:58.351Z,62.25
2022-12-08T06:11:30.744Z,62.31
2022-12-08T06:13:58.467Z,62.60
2022-12-08T06:16:26.715Z,63.85
2022-12-08T06:18:54.112Z,65.64
2022-12-08T06:21:20.907Z,65.10
2022-12-08T06:23:50.444Z,65.07
2022-12-08T06:26:17.683Z,65.71
2022-12-08T06:28:44.651Z,65.35
2022-12-08T06:31:17.470Z,64.13
2022-12-08T06:33:46.008Z,63.93
2022-12-08T06:36:14.466Z,63.74
2022-12-08T06:38:43.636Z,62.41
2022-12-08T06:41:11.955Z,63.03
2022-12-08T06:43:38.990Z,62.91
2022-12-08T06:46:08.168Z,62.23
2022-12-08T06:48:34.973Z,62.37
2022-12-08T06:51:16.230Z,61.83
2022-12-08T06:53:43.821Z,61.15
2022-12-08T06:56:11.453Z,61.27
2022-12-08T06:58:38.771Z,60.86
2022-12-08T07:01:10.340Z,60.47
2022-12-08T07:03:38.323Z,61.64
2022-12-08T07:06:06.263Z,61.08
2022-12-08T07:08:34.231Z,60.81
2022-12-08T07:11:06.986Z,61.08
2022-12-08T07:13:33.707Z,60.78
2022-12-08T07:16:01.930Z,60.75
2022-12-08T07:18:29.122Z,60.73
2022-12-08T07:20:55.732Z,60.80
2022-12-08T07:23:22.402Z,60.95
2022-12-08T07:25:49.091Z,60.14
2022-12-08T07:28:15.756Z,60.29
2022-12-08T07:30:42.419Z,60.55
2022-12-08T07:33:09.135Z,60.54
2022-12-08T07:35:35.737Z,61.32
2022-12-08T07:38:02.764Z,61.02
2022-12-08T07:40:29.589Z,61.94
2022-12-08T07:42:56.285Z,62.50
2022-12-08T07:45:28.337Z,61.26
2022-12-08T07:47:58.010Z,60.68
2022-12-08T07:50:24.701Z,60.90
2022-12-08T07:52:51.316Z,61.01
2022-12-08T07:55:18.124Z,61.07
2022-12-08T07:57:44.773Z,61.16
2022-12-08T08:00:11.961Z,61.25
2022-12-08T08:02:39.872Z,61.34
2022-12-08T08:05:07.120Z,60.67
2022-12-08T08:07:34.061Z,61.64
2022-12-08T08:10:00.954Z,61.54
2022-12-08T08:12:32.051Z,60.91
2022-12-08T08:15:00.486Z,62.74
2022-12-08T08:17:27.621Z,63.88
2022-12-08T08:19:54.302Z,62.46
2022-12-08T08:22:20.941Z,62.47
2022-12-08T08:24:47.633Z,63.66
2022-12-08T08:27:14.230Z,63.66
2022-12-08T08:29:40.897Z,64.30
2022-12-08T08:32:07.497Z,63.69
2022-12-08T08:34:34.099Z,62.89
2022-12-08T08:37:00.863Z,63.06
2022-12-08T08:39:27.627Z,63.16
2022-12-08T08:41:54.189Z,63.82
2022-12-08T08:44:20.820Z,63.47
2022-12-08T08:46:47.656Z,63.87
2022-12-08T08:49:14.377Z,64.80
2022-12-08T08:51:42.037Z,65.48
2022-12-08T08:54:08.648Z,64.42
2022-12-08T08:56:35.293Z,65.60
2022-12-08T08:59:03.078Z,64.61
2022-12-08T09:01:30.331Z,64.47
2022-12-08T09:03:57.752Z,65.12
2022-12-08T09:06:25.018Z,63.88
2022-12-08T09:08:52.357Z,63.68
2022-12-08T09:11:19.040Z,63.69
2022-12-08T09:13:49.819Z,63.93
2022-12-08T09:16:18.441Z,64.84
2022-12-08T09:18:45.115Z,65.23
2022-12-08T09:21:16.453Z,64.75
2022-12-08T09:23:43.475Z,63.71
2022-12-08T09:26:10.242Z,63.79
2022-12-08T09:28:37.168Z,64.95
2022-12-08T09:31:04.267Z,64.70
2022-12-08T09:33:31.482Z,65.62
2022-12-08T09:36:02.837Z,65.29
2022-12-08T09:38:29.481Z,65.83
2022-12-08T09:40:56.380Z,66.36
2022-12-08T09:43:33.382Z,66.46
2022-12-08T09:46:02.128Z,66.64
2022-12-08T09:48:43.128Z,67.01
2022-12-08T09:51:12.187Z,67.77
2022-12-08T09:53:54.818Z,67.73
2022-12-08T09:56:24.682Z,67.52
2022-12-08T09:58:56.475Z,67.01
2022-12-08T10:01:28.840Z,67.04
2022-12-08T10:03:56.143Z,66.75
2022-12-08T10:06:48.155Z,67.26
2022-12-08T10:09:26.974Z,66.65
2022-12-08T10:11:57.029Z,65.55
2022-12-08T10:14:46.279Z,66.67
2022-12-08T10:17:25.471Z,67.50
2022-12-08T10:19:59.594Z,67.49
2022-12-08T10:22:33.727Z,67.58
2022-12-08T10:25:07.542Z,68.44
2022-12-08T10:27:36.645Z,68.42
2022-12-08T10:30:11.678Z,67.96
2022-12-08T10:32:39.265Z,67.37
2022-12-08T10:35:09.358Z,67.00
2022-12-08T10:37:36.384Z,68.16
2022-12-08T10:40:03.223Z,68.64
2022-12-08T10:42:37.501Z,67.30
2022-12-08T10:45:32.397Z,67.04
2022-12-08T10:48:05.829Z,67.99
2022-12-08T10:50:35.434Z,68.78
2022-12-08T10:53:12.797Z,68.78
2022-12-08T10:55:40.790Z,69.04
2022-12-08T10:58:35.349Z,68.68
2022-12-08T11:01:11.027Z,68.61
2022-12-08T11:03:45.966Z,68.79
2022-12-08T11:06:17.962Z,67.80
2022-12-08T11:08:54.370Z,69.10
2022-12-08T11:11:28.978Z,69.05
2022-12-08T11:13:56.434Z,69.10
2022-12-08T11:16:23.689Z,68.73
2022-12-08T11:18:57.600Z,69.17
2022-12-08T11:21:36.020Z,69.54
2022-12-08T11:24:32.278Z,69.64
2022-12-08T11:27:04.534Z,68.98
2022-12-08T11:29:33.528Z,68.37
2022-12-08T11:32:04.430Z,68.03
2022-12-08T11:34:33.662Z,67.27
2022-12-08T11:37:00.878Z,67.35
2022-12-08T11:39:32.336Z,68.67
2022-12-08T11:42:03.234Z,68.67
2022-12-08T11:44:38.762Z,67.66
2022-12-08T11:47:14.605Z,68.13
2022-12-08T11:49:42.804Z,67.57
2022-12-08T11:52:26.299Z,68.17
2022-12-08T11:55:00.969Z,68.83
2022-12-08T11:57:29.701Z,68.79
2022-12-08T11:59:58.076Z,68.32
2022-12-08T12:02:31.991Z,68.14
2022-12-08T12:05:07.975Z,67.79
2022-12-08T12:07:56.853Z,67.55
2022-12-08T12:10:26.391Z,66.98
2022-12-08T12:13:05.502Z,66.36
2022-12-08T12:15:44.385Z,66.94
2022-12-08T12:18:28.870Z,67.29
2022-12-08T12:21:07.857Z,67.84
2022-12-08T12:23:43.162Z,68.27
2022-12-08T12:26:18.958Z,67.16
2022-12-08T12:29:05.820Z,67.32
2022-12-08T12:31:41.442Z,67.66
2022-12-08T12:34:15.145Z,66.63
2022-12-08T12:36:56.437Z,66.99
2022-12-08T12:39:30.058Z,66.86
2022-12-08T12:42:01.759Z,66.17
2022-12-08T12:44:28.331Z,67.61
2022-12-08T12:47:03.316Z,67.94
2022-12-08T12:49:38.762Z,67.76
2022-12-08T12:52:31.433Z,68.02
2022-12-08T12:54:58.042Z,66.58
2022-12-08T12:57:39.779Z,66.12
2022-12-08T13:00:18.993Z,64.84
2022-12-08T13:02:49.060Z,65.04
2022-12-08T13:05:34.066Z,64.92
2022-12-08T13:08:08.211Z,65.30
2022-12-08T13:10:38.598Z,64.65
2022-12-08T13:13:12.575Z,64.66
2022-12-08T13:15:46.855Z,64.70
2022-12-08T13:18:31.980Z,64.21
2022-12-08T13:21:10.648Z,65.14
2022-12-08T13:23:37.205Z,64.25
2022-12-08T13:26:22.035Z,64.47
2022-12-08T13:29:03.995Z,64.26
2022-12-08T13:31:42.571Z,65.55
2022-12-08T13:34:23.455Z,64.40
2022-12-08T13:37:15.498Z,64.24
2022-12-08T13:39:52.193Z,63.53
2022-12-08T13:42:31.051Z,63.05
2022-12-08T13:45:39.677Z,64.19
2022-12-08T13:57:08.393Z,63.61
2022-12-08T13:59:43.893Z,63.69
2022-12-08T14:02:13.287Z,63.50
2022-12-08T14:05:16.725Z,63.42
2022-12-08T14:07:33.681Z,63.36
2022-12-08T14:10:03.525Z,63.42
2022-12-08T14:12:31.361Z,62.99
2022-12-08T14:15:05.100Z,62.39
2022-12-08T14:17:33.095Z,62.43
2022-12-08T14:20:22.679Z,62.34
2022-12-08T14:22:50.417Z,62.71
2022-12-08T14:25:18.046Z,63.77
2022-12-08T14:27:46.244Z,62.73
2022-12-08T14:30:16.115Z,63.46
2022-12-08T14:32:47.156Z,63.55
2022-12-08T14:35:30.132Z,62.90
2022-12-08T14:38:17.949Z,62.58
2022-12-08T14:40:46.888Z,62.79
2022-12-08T14:43:20.863Z,62.94
2022-12-08T14:45:50.628Z,63.08
2022-12-08T14:48:21.729Z,62.71
2022-12-08T14:50:56.864Z,62.98
2022-12-08T14:53:24.753Z,62.95
2022-12-08T14:55:52.064Z,63.55
2022-12-08T14:58:24.028Z,63.60
2022-12-08T15:00:54.612Z,63.82
2022-12-08T15:03:23.295Z,64.70
2022-12-08T15:05:56.818Z,64.36
2022-12-08T15:08:24.103Z,63.76
2022-12-08T15:11:31.648Z,64.60
2022-12-08T15:13:58.431Z,64.95
2022-12-08T15:16:36.999Z,64.78
2022-12-08T15:19:27.711Z,65.04
2022-12-08T15:21:56.901Z,65.16
2022-12-08T15:24:26.745Z,65.12
2022-12-08T15:26:54.015Z,64.30
2022-12-08T15:29:28.962Z,65.34
2022-12-08T15:31:58.734Z,65.22
2022-12-08T15:34:25.646Z,65.18
2022-12-08T15:36:54.552Z,64.87
2022-12-08T15:39:28.388Z,64.76
2022-12-08T15:41:55.541Z,65.20
2022-12-08T15:44:22.910Z,64.71
2022-12-08T15:46:50.127Z,65.39
2022-12-08T15:49:19.570Z,65.53
2022-12-08T15:51:46.484Z,64.87
2022-12-08T15:54:13.764Z,64.69
2022-12-08T15:57:10.566Z,65.12
2022-12-08T15:59:31.143Z,65.00
2022-12-08T16:01:57.978Z,65.35
2022-12-08T16:07:26.147Z,65.34
2022-12-08T16:09:53.380Z,65.54
2022-12-08T16:13:27.322Z,65.53
2022-12-08T16:18:19.028Z,66.09
2022-12-08T16:23:46.496Z,65.92
2022-12-08T16:27:01.028Z,65.74
2022-12-08T16:29:07.153Z,65.34
2022-12-08T16:31:35.274Z,65.55
2022-12-08T16:34:02.129Z,65.51
2022-12-08T16:36:28.882Z,65.59
2022-12-08T16:38:56.177Z,65.90
2022-12-08T16:41:41.657Z,66.08
2022-12-08T16:44:08.436Z,66.12
2022-12-08T16:46:35.970Z,66.35
2022-12-08T16:49:03.592Z,66.09
2022-12-08T16:51:30.164Z,66.11
2022-12-08T16:53:59.418Z,66.21
2022-12-08T16:56:32.795Z,65.98
2022-12-08T16:59:01.811Z,66.60
2022-12-08T17:01:28.525Z,66.52
2022-12-08T17:06:44.701Z,66.33
2022-12-08T17:09:11.321Z,66.25
2022-12-08T17:11:42.956Z,66.73
2022-12-08T17:14:11.077Z,66.50
2022-12-08T17:16:38.143Z,66.56
2022-12-08T17:19:05.312Z,67.53
2022-12-08T17:21:32.304Z,67.19
2022-12-08T17:23:58.996Z,67.29
2022-12-08T17:26:25.594Z,66.60
2022-12-08T17:29:00.685Z,66.45
2022-12-08T17:31:32.234Z,66.22
2022-12-08T17:39:18.781Z,66.31
2022-12-08T17:41:46.433Z,66.56
2022-12-08T17:44:16.752Z,67.19
2022-12-08T17:46:49.080Z,66.67
2022-12-08T17:49:22.389Z,66.57
2022-12-08T17:51:51.367Z,66.71
2022-12-08T17:54:19.004Z,67.10
2022-12-08T17:56:46.825Z,68.21
2022-12-08T17:59:14.168Z,67.73
2022-12-08T18:01:41.405Z,68.33
2022-12-08T18:04:09.399Z,68.76
2022-12-08T18:06:37.839Z,68.12
2022-12-08T18:09:07.830Z,68.54
2022-12-08T18:11:37.052Z,68.91
2022-12-08T18:14:10.065Z,68.70
2022-12-08T18:16:42.961Z,68.46
2022-12-08T18:19:10.860Z,68.48
2022-12-08T18:21:41.475Z,68.63
2022-12-08T18:24:09.413Z,68.43
2022-12-08T18:26:36.185Z,68.37
2022-12-08T18:29:03.182Z,68.04
2022-12-08T18:31:29.977Z,69.37
2022-12-08T18:33:56.712Z,68.46
2022-12-08T18:36:25.246Z,68.31
2022-12-08T18:38:53.030Z,67.44
2022-12-08T18:41:25.954Z,67.89
2022-12-08T18:43:55.149Z,67.39
2022-12-08T18:46:21.918Z,67.22
2022-12-08T18:48:50.688Z,66.86
2022-12-08T18:51:20.324Z,66.73
2022-12-08T18:53:47.723Z,66.68
2022-12-08T18:56:40.645Z,67.67
2022-12-08T18:59:10.900Z,67.62
2022-12-08T19:01:39.890Z,67.08
2022-12-08T19:06:57.040Z,66.82
2022-12-08T19:09:26.537Z,65.59
2022-12-08T19:11:53.279Z,65.80
2022-12-08T19:14:25.768Z,66.18
2022-12-08T19:16:54.344Z,66.53
2022-12-08T19:19:21.500Z,65.54
2022-12-08T19:21:48.239Z,65.19
2022-12-08T19:24:15.393Z,65.46
2022-12-08T19:26:42.696Z,64.87
2022-12-08T19:29:09.787Z,66.45
2022-12-08T19:31:36.556Z,65.78
2022-12-08T19:34:03.379Z,65.37
2022-12-08T19:36:35.306Z,65.53
2022-12-08T19:39:21.933Z,65.60
2022-12-08T19:42:07.376Z,64.31
2022-12-08T19:44:34.330Z,64.52
2022-12-08T19:47:01.892Z,63.76
2022-12-08T19:49:29.137Z,64.14
2022-12-08T19:51:56.355Z,65.33
2022-12-08T19:54:23.163Z,64.55
2022-12-08T19:56:50.028Z,64.90
2022-12-08T19:59:19.329Z,64.88
2022-12-08T20:01:48.059Z,64.49
2022-12-08T20:04:15.835Z,64.48
2022-12-08T20:06:42.971Z,64.90
2022-12-08T20:09:11.630Z,64.46
2022-12-08T20:11:39.393Z,64.58
2022-12-08T20:14:06.734Z,64.34
2022-12-08T20:16:33.897Z,63.78
2022-12-08T20:19:01.911Z,63.48
2022-12-08T20:21:28.975Z,63.80
2022-12-08T20:23:57.764Z,63.31
2022-12-08T20:26:24.734Z,64.10
2022-12-08T20:28:51.683Z,63.67
2022-12-08T20:31:29.828Z,63.51
2022-12-08T20:33:56.604Z,63.53
2022-12-08T20:36:23.505Z,64.11
2022-12-08T20:38:52.034Z,63.58
2022-12-08T20:41:19.925Z,63.60
2022-12-08T20:43:47.516Z,64.56
2022-12-08T20:46:16.411Z,63.71
2022-12-08T20:48:44.190Z,64.37
2022-12-08T20:51:19.426Z,63.52
2022-12-08T20:53:47.235Z,63.70
2022-12-08T20:56:18.881Z,63.58
2022-12-08T20:58:45.802Z,64.23
2022-12-08T21:01:15.000Z,64.59
2022-12-08T21:03:42.405Z,63.51
2022-12-08T21:06:10.239Z,63.51
2022-12-08T21:08:37.963Z,64.80
2022-12-08T21:11:05.954Z,64.69
2022-12-08T21:13:33.624Z,63.64
2022-12-08T21:16:00.416Z,64.16
2022-12-08T21:18:27.380Z,63.88
2022-12-08T21:21:05.009Z,64.09
2022-12-08T21:23:32.236Z,63.74
2022-12-08T21:25:59.213Z,63.69
2022-12-08T21:28:26.133Z,63.49
2022-12-08T21:30:53.008Z,63.09
2022-12-08T21:33:19.916Z,62.29
2022-12-08T21:35:46.896Z,63.08
2022-12-08T21:38:13.785Z,62.25
2022-12-08T21:40:40.651Z,62.35
2022-12-08T21:43:07.974Z,62.73
2022-12-08T21:45:35.062Z,62.68
2022-12-08T21:48:07.276Z,61.93
2022-12-08T21:50:37.696Z,61.88
2022-12-08T21:53:04.566Z,61.71
2022-12-08T21:55:31.473Z,61.58
2022-12-08T21:58:00.780Z,61.84
2022-12-08T22:00:30.341Z,62.75
2022-12-08T22:02:58.100Z,62.68
2022-12-08T22:05:25.071Z,62.62
2022-12-08T22:07:51.881Z,62.82
2022-12-08T22:10:21.060Z,61.79
2022-12-08T22:12:47.989Z,62.54
2022-12-08T22:15:15.151Z,61.88
2022-12-08T22:17:43.659Z,61.42
2022-12-08T22:20:13.535Z,62.40
2022-12-08T22:22:40.884Z,62.30
2022-12-08T22:25:11.879Z,63.38
2022-12-08T22:27:40.579Z,62.68
2022-12-08T22:30:08.487Z,62.45
2022-12-08T22:32:35.754Z,63.35
2022-12-08T22:35:02.592Z,61.90
2022-12-08T22:37:29.307Z,62.42
2022-12-08T22:39:55.937Z,61.21
2022-12-08T22:42:22.677Z,61.13
2022-12-08T22:44:49.469Z,62.00
2022-12-08T22:47:16.215Z,62.35
2022-12-08T22:49:43.461Z,62.39
2022-12-08T22:52:10.259Z,61.89
2022-12-08T22:54:36.944Z,61.64
2022-12-08T22:57:03.820Z,61.55
2022-12-08T22:59:30.552Z,62.24
2022-12-08T23:01:57.305Z,61.42
2022-12-08T23:04:24.115Z,61.39
2022-12-08T23:06:50.839Z,61.22
2022-12-08T23:09:18.624Z,61.71
2022-12-08T23:11:45.547Z,61.88
2022-12-08T23:14:12.464Z,61.29
2022-12-08T23:16:39.340Z,61.37
2022-12-08T23:19:06.201Z,62.28
2022-12-08T23:21:32.959Z,62.01
2022-12-08T23:24:01.506Z,61.51
2022-12-08T23:26:31.672Z,61.37
2022-12-08T23:28:59.205Z,61.08
2022-12-08T23:31:26.712Z,61.82
2022-12-08T23:33:53.776Z,61.36
2022-12-08T23:36:23.112Z,61.33
2022-12-08T23:38:49.768Z,60.51
2022-12-08T23:41:16.784Z,61.36
2022-12-08T23:43:45.547Z,62.38
2022-12-08T23:46:12.652Z,60.86
2022-12-08T23:48:39.610Z,61.04
2022-12-08T23:51:06.832Z,61.46
2022-12-08T23:53:34.077Z,61.15
2022-12-08T23:56:02.770Z,61.59
2022-12-08T23:58:31.216Z,62.36
